createdAt,value
2023-02-14T00:02:35.163Z,101440.16
2023-02-14T00:05:39.744Z,101537.59
2023-02-14T00:08:47.477Z,101551.78
2023-02-14T00:11:52.649Z,101553.72
2023-02-14T00:15:15.442Z,101549.47
2023-02-14T00:18:19.874Z,101558.84
2023-02-14T00:21:24.380Z,101572.25
2023-02-14T00:24:29.272Z,101523.47
2023-02-14T00:27:36.103Z,101568.59
2023-02-14T00:30:40.683Z,101485.59
2023-02-14T00:33:45.464Z,101523.53
2023-02-14T00:36:50.105Z,101559.47
2023-02-14T00:39:54.656Z,101532.53
2023-02-14T00:42:58.501Z,101528.69
2023-02-14T00:46:02.790Z,101547.81
2023-02-14T00:49:07.904Z,101553.38
2023-02-14T00:52:12.440Z,101533.66
2023-02-14T00:55:16.742Z,101576.19
2023-02-14T00:58:21.000Z,101532.53
2023-02-14T01:01:25.602Z,101558.66
2023-02-14T01:04:29.994Z,101584.13
2023-02-14T01:07:34.039Z,101558.84
2023-02-14T01:10:39.156Z,101561.31
2023-02-14T01:13:44.445Z,101595.56
2023-02-14T01:16:48.826Z,101538.53
2023-02-14T01:19:54.771Z,101512.72
2023-02-14T01:23:00.962Z,101554.53
2023-02-14T01:26:07.306Z,101552.22
2023-02-14T01:29:11.374Z,101551.66
2023-02-14T01:32:29.283Z,101548.81
2023-02-14T01:35:42.572Z,101613.78
2023-02-14T01:39:08.981Z,101544.22
2023-02-14T01:42:48.563Z,101591.84
2023-02-14T01:46:26.868Z,101554.00
2023-02-14T01:49:52.461Z,101594.94
2023-02-14T01:53:04.345Z,101594.69
2023-02-14T01:56:18.637Z,101609.47
2023-02-14T01:59:33.714Z,101607.44
2023-02-14T02:02:46.000Z,101656.88
2023-02-14T02:06:03.792Z,101637.59
2023-02-14T02:09:37.910Z,101667.69
2023-02-14T02:12:54.989Z,101492.09
2023-02-14T02:16:17.369Z,101660.47
2023-02-14T02:19:44.744Z,101653.41
2023-02-14T02:23:11.950Z,101665.06
2023-02-14T02:27:00.398Z,101666.75
2023-02-14T02:31:00.597Z,101671.06
2023-02-14T02:34:26.450Z,101663.63
2023-02-14T02:37:47.906Z,101636.72
2023-02-14T02:41:07.920Z,101665.56
2023-02-14T02:44:35.907Z,101662.13
2023-02-14T02:47:55.914Z,101680.81
2023-02-14T02:51:35.684Z,101680.56
2023-02-14T02:54:54.512Z,101672.00
2023-02-14T02:58:09.921Z,101667.34
2023-02-14T03:01:22.057Z,101681.56
2023-02-14T03:04:47.483Z,101669.16
2023-02-14T03:07:51.444Z,101658.75
2023-02-14T03:10:56.357Z,101615.75
2023-02-14T03:14:17.523Z,101651.09
2023-02-14T03:18:05.549Z,101697.81
2023-02-14T03:21:29.934Z,101695.50
2023-02-14T03:25:05.024Z,101676.44
2023-02-14T03:28:21.686Z,101624.16
2023-02-14T03:31:51.210Z,101670.88
2023-02-14T03:35:12.578Z,101657.72
2023-02-14T03:39:24.681Z,101712.28
2023-02-14T03:42:51.623Z,101571.03
2023-02-14T03:46:58.432Z,101700.00
2023-02-14T03:50:18.045Z,101708.09
2023-02-14T03:53:28.535Z,101713.06
2023-02-14T03:56:48.586Z,101697.50
2023-02-14T03:59:53.889Z,101668.44
2023-02-14T04:03:06.006Z,101693.94
2023-02-14T04:06:13.008Z,101689.66
2023-02-14T04:09:17.426Z,101692.91
2023-02-14T04:12:36.818Z,101649.75
2023-02-14T04:15:42.114Z,101695.50
2023-02-14T04:19:07.034Z,101697.81
2023-02-14T04:22:11.608Z,101705.44
2023-02-14T04:25:16.678Z,101706.06
2023-02-14T04:28:21.454Z,101705.53
2023-02-14T04:31:26.044Z,101678.53
2023-02-14T04:34:30.517Z,101709.19
2023-02-14T04:37:35.249Z,101709.16
2023-02-14T04:40:39.883Z,101707.47
2023-02-14T04:43:47.498Z,101685.88
2023-02-14T04:46:52.491Z,101707.78
2023-02-14T04:49:57.182Z,101706.88
2023-02-14T04:53:01.053Z,101710.78
2023-02-14T04:56:05.343Z,101700.88
2023-02-14T04:59:10.310Z,101693.34
2023-02-14T05:02:16.910Z,101717.16
2023-02-14T05:05:20.935Z,101713.78
2023-02-14T05:08:24.698Z,101744.38
2023-02-14T05:11:29.952Z,101754.28
2023-02-14T05:14:37.056Z,101740.06
2023-02-14T05:17:40.984Z,101750.31
2023-02-14T05:20:46.821Z,101723.22
2023-02-14T05:23:50.934Z,101750.34
2023-02-14T05:26:55.516Z,101758.03
2023-02-14T05:29:59.810Z,101708.06
2023-02-14T05:33:03.795Z,101700.19
2023-02-14T05:36:07.906Z,101773.56
2023-02-14T05:39:15.351Z,101771.31
2023-02-14T05:42:19.701Z,101801.69
2023-02-14T05:45:24.591Z,101800.97
2023-02-14T05:48:28.842Z,101794.28
2023-02-14T05:51:32.815Z,101776.16
2023-02-14T05:54:37.564Z,101794.44
2023-02-14T05:57:42.173Z,101811.25
2023-02-14T06:00:46.532Z,101827.75
2023-02-14T06:03:50.734Z,101837.22
2023-02-14T06:06:54.784Z,101843.00
2023-02-14T06:09:59.543Z,101835.97
2023-02-14T06:13:04.213Z,101858.03
2023-02-14T06:16:08.503Z,101859.44
2023-02-14T06:19:15.798Z,101848.50
2023-02-14T06:22:20.166Z,101864.91
2023-02-14T06:25:25.656Z,101806.69
2023-02-14T06:28:29.944Z,101866.94
2023-02-14T06:31:34.420Z,101870.72
2023-02-14T06:34:40.684Z,101880.06
2023-02-14T06:37:46.065Z,101797.50
2023-02-14T06:40:50.527Z,101887.19
2023-02-14T06:43:58.042Z,101878.91
2023-02-14T06:47:10.550Z,101749.50
2023-02-14T06:50:15.139Z,101905.81
2023-02-14T06:53:19.972Z,101902.34
2023-02-14T06:56:24.134Z,101897.50
2023-02-14T06:59:28.522Z,101898.47
2023-02-14T07:02:32.822Z,101888.53
2023-02-14T07:05:37.890Z,101926.59
2023-02-14T07:08:43.150Z,101906.47
2023-02-14T07:11:47.467Z,101918.41
2023-02-14T07:14:51.604Z,101891.59
2023-02-14T07:17:55.660Z,101914.53
2023-02-14T07:21:00.161Z,101933.16
2023-02-14T07:24:04.898Z,101910.69
2023-02-14T07:27:11.951Z,101944.28
2023-02-14T07:30:16.648Z,101933.19
2023-02-14T07:33:20.723Z,101939.06
2023-02-14T07:36:25.267Z,101922.28
2023-02-14T07:39:29.655Z,101941.38
2023-02-14T07:42:34.021Z,101942.88
2023-02-14T07:45:38.285Z,101973.94
2023-02-14T07:48:51.881Z,101750.53
2023-02-14T07:52:13.846Z,101975.56
2023-02-14T07:55:17.898Z,101948.72
2023-02-14T07:58:21.800Z,101994.44
2023-02-14T08:01:26.709Z,102000.72
2023-02-14T08:04:32.948Z,101993.81
2023-02-14T08:07:37.881Z,102005.53
2023-02-14T08:10:42.141Z,101989.09
2023-02-14T08:13:47.985Z,101942.25
2023-02-14T08:16:52.264Z,102022.88
2023-02-14T08:19:56.530Z,102021.72
2023-02-14T08:23:00.996Z,102031.44
2023-02-14T08:26:05.620Z,102024.34
2023-02-14T08:29:09.594Z,102009.31
2023-02-14T08:32:13.959Z,102044.16
2023-02-14T08:35:18.630Z,102038.34
2023-02-14T08:38:23.252Z,102053.53
2023-02-14T08:41:27.745Z,102040.31
2023-02-14T08:44:31.940Z,102044.38
2023-02-14T08:47:41.117Z,102077.13
2023-02-14T08:50:46.980Z,102077.69
2023-02-14T08:53:52.749Z,102084.28
2023-02-14T08:56:57.100Z,102079.22
2023-02-14T09:00:01.751Z,102083.88
2023-02-14T09:03:11.382Z,102081.38
2023-02-14T09:06:18.078Z,102100.63
2023-02-14T09:09:22.339Z,102093.56
2023-02-14T09:12:26.721Z,102104.34
2023-02-14T09:15:33.300Z,102095.34
2023-02-14T09:18:38.380Z,102123.69
2023-02-14T09:21:44.047Z,102140.50
2023-02-14T09:24:48.819Z,102133.25
2023-02-14T09:27:53.071Z,102118.13
2023-02-14T09:30:58.000Z,102152.81
2023-02-14T09:34:05.490Z,102152.97
2023-02-14T09:37:30.987Z,102122.28
2023-02-14T09:40:35.349Z,102146.81
2023-02-14T09:44:30.136Z,102169.31
2023-02-14T09:47:42.025Z,102171.53
2023-02-14T09:50:51.128Z,102148.06
2023-02-14T09:54:03.678Z,102178.63
2023-02-14T09:57:39.528Z,102151.19
2023-02-14T10:01:01.188Z,102181.22
2023-02-14T10:04:08.692Z,102196.03
2023-02-14T10:07:25.153Z,102194.22
2023-02-14T10:10:32.842Z,102191.41
2023-02-14T10:13:44.157Z,102203.16
2023-02-14T10:17:08.908Z,102198.72
2023-02-14T10:20:25.845Z,102128.78
2023-02-14T10:23:39.175Z,102211.59
2023-02-14T10:26:45.317Z,102181.28
2023-02-14T10:29:49.929Z,102197.63
2023-02-14T10:33:17.928Z,102229.50
2023-02-14T10:36:49.763Z,102226.25
2023-02-14T10:40:10.496Z,102240.31
2023-02-14T10:43:32.434Z,102235.34
2023-02-14T10:46:55.673Z,102240.78
2023-02-14T10:50:31.419Z,102245.06
2023-02-14T10:54:13.779Z,102205.78
2023-02-14T10:57:39.862Z,101936.25
2023-02-14T11:01:13.611Z,102252.53
2023-02-14T11:04:20.939Z,102234.06
2023-02-14T11:07:25.304Z,102251.06
2023-02-14T11:10:37.255Z,102266.97
2023-02-14T11:13:42.455Z,102261.13
2023-02-14T11:16:47.644Z,102279.63
2023-02-14T11:20:07.296Z,102278.84
2023-02-14T11:23:22.809Z,102278.22
2023-02-14T11:26:32.383Z,102254.75
2023-02-14T11:29:42.947Z,102290.00
2023-02-14T11:32:55.973Z,102274.06
2023-02-14T11:36:01.321Z,102275.59
2023-02-14T11:39:29.716Z,102286.97
2023-02-14T11:42:51.623Z,102279.72
2023-02-14T11:46:25.557Z,102289.41
2023-02-14T11:49:35.747Z,102262.38
2023-02-14T11:52:50.874Z,102277.38
2023-02-14T11:55:57.726Z,102287.47
2023-02-14T11:59:06.503Z,102292.63
2023-02-14T12:02:38.787Z,102281.03
2023-02-14T12:05:49.879Z,102287.34
2023-02-14T12:09:13.267Z,102289.16
2023-02-14T12:12:27.644Z,102214.22
2023-02-14T12:15:39.537Z,102298.50
2023-02-14T12:19:01.547Z,102269.88
2023-02-14T12:22:07.957Z,102273.72
2023-02-14T12:25:28.030Z,102296.97
2023-02-14T12:28:49.450Z,102297.75
2023-02-14T12:31:56.031Z,102299.63
2023-02-14T12:35:48.437Z,102289.06
2023-02-14T12:39:17.052Z,102294.28
2023-02-14T12:42:44.972Z,102258.41
2023-02-14T12:46:09.535Z,102295.81
2023-02-14T12:49:28.974Z,102300.06
2023-02-14T12:52:56.274Z,102297.38
2023-02-14T12:56:20.358Z,102284.06
2023-02-14T12:59:49.404Z,102283.75
2023-02-14T13:03:14.927Z,102287.00
2023-02-14T13:06:30.908Z,102281.75
2023-02-14T13:09:53.600Z,102241.91
2023-02-14T13:13:09.092Z,102272.75
2023-02-14T13:16:35.966Z,102281.22
2023-02-14T13:19:49.505Z,102286.09
2023-02-14T13:22:56.877Z,102282.97
2023-02-14T13:26:08.698Z,102286.31
2023-02-14T13:29:18.983Z,102267.66
2023-02-14T13:32:27.440Z,102271.91
2023-02-14T13:35:32.833Z,102286.97
2023-02-14T13:38:58.273Z,102288.97
2023-02-14T13:42:02.713Z,102246.06
2023-02-14T13:45:07.536Z,102284.97
2023-02-14T13:48:16.722Z,102285.00
2023-02-14T13:51:21.142Z,102289.75
2023-02-14T13:54:31.334Z,102286.63
2023-02-14T13:57:37.491Z,102286.91
2023-02-14T14:00:52.397Z,102292.44
2023-02-14T14:04:05.550Z,102279.59
2023-02-14T14:07:22.906Z,102278.47
2023-02-14T14:11:03.128Z,102280.16
2023-02-14T14:14:22.612Z,102284.50
2023-02-14T14:17:27.018Z,102269.28
2023-02-14T14:20:42.421Z,102291.38
2023-02-14T14:23:46.540Z,102288.81
2023-02-14T14:27:01.478Z,102289.59
2023-02-14T14:30:23.673Z,102281.09
2023-02-14T14:33:30.920Z,102297.75
2023-02-14T14:36:35.352Z,102297.56
2023-02-14T14:39:40.720Z,102207.41
2023-02-14T14:42:45.653Z,102299.00
2023-02-14T14:45:53.745Z,102256.34
2023-02-14T14:48:59.060Z,102284.50
2023-02-14T14:52:03.584Z,102279.09
2023-02-14T14:55:18.058Z,102287.78
2023-02-14T14:58:43.021Z,102290.16
2023-02-14T15:01:48.735Z,102287.25
2023-02-14T15:04:53.962Z,102282.31
2023-02-14T15:07:58.650Z,102280.66
2023-02-14T15:11:47.856Z,102283.06
2023-02-14T15:14:56.397Z,102291.03
2023-02-14T15:18:01.266Z,102262.59
2023-02-14T15:21:08.033Z,102221.16
2023-02-14T15:24:16.362Z,102276.09
2023-02-14T15:27:26.589Z,102278.28
2023-02-14T15:30:38.600Z,102269.56
2023-02-14T15:33:43.221Z,102262.97
2023-02-14T15:36:51.920Z,102283.72
2023-02-14T15:39:58.113Z,102254.50
2023-02-14T15:43:16.075Z,102275.31
2023-02-14T15:46:29.627Z,102284.13
2023-02-14T15:49:42.034Z,102284.53
2023-02-14T15:52:48.544Z,102291.94
2023-02-14T15:55:53.442Z,102296.28
2023-02-14T15:59:19.700Z,102295.50
2023-02-14T16:02:38.720Z,102281.81
2023-02-14T16:05:48.661Z,102265.09
2023-02-14T16:08:57.143Z,102294.31
2023-02-14T16:12:29.266Z,102303.66
2023-02-14T16:15:37.416Z,102302.09
2023-02-14T16:18:50.541Z,102321.09
2023-02-14T16:21:58.366Z,102298.09
2023-02-14T16:25:03.013Z,102279.78
2023-02-14T16:28:07.452Z,102321.91
2023-02-14T16:31:17.720Z,102315.75
2023-02-14T16:34:22.951Z,102314.56
2023-02-14T16:37:34.041Z,102318.66
2023-02-14T16:40:38.634Z,102318.34
2023-02-14T16:43:42.887Z,102326.31
2023-02-14T16:46:47.767Z,102328.13
2023-02-14T16:49:54.033Z,102315.50
2023-02-14T16:52:59.190Z,102316.13
2023-02-14T16:56:03.579Z,102330.03
2023-02-14T16:59:08.077Z,102343.34
2023-02-14T17:02:14.320Z,102320.88
2023-02-14T17:05:18.740Z,102339.63
2023-02-14T17:08:23.421Z,102342.25
2023-02-14T17:11:29.504Z,102346.03
2023-02-14T17:14:39.651Z,102342.91
2023-02-14T17:17:45.901Z,102344.31
2023-02-14T17:20:50.864Z,102331.03
2023-02-14T17:23:55.080Z,102331.59
2023-02-14T17:26:59.544Z,102333.09
2023-02-14T17:30:03.929Z,102343.28
2023-02-14T17:33:08.457Z,102339.59
2023-02-14T17:36:15.482Z,102347.66
2023-02-14T17:39:20.597Z,102328.28
2023-02-14T17:42:24.724Z,102332.84
2023-02-14T17:45:28.920Z,102331.03
2023-02-14T17:48:33.179Z,102340.81
2023-02-14T17:51:37.285Z,102342.06
2023-02-14T17:54:41.837Z,102316.38
2023-02-14T17:57:46.256Z,102337.09
2023-02-14T18:00:50.674Z,102346.03
2023-02-14T18:03:55.954Z,102310.03
2023-02-14T18:07:00.124Z,102334.25
2023-02-14T18:10:04.159Z,102363.13
2023-02-14T18:13:08.416Z,102358.50
2023-02-14T18:16:15.263Z,102361.00
2023-02-14T18:19:19.944Z,102368.28
2023-02-14T18:22:24.190Z,102364.94
2023-02-14T18:25:28.400Z,102368.16
2023-02-14T18:28:36.040Z,102369.06
2023-02-14T18:31:43.416Z,102373.38
2023-02-14T18:34:47.827Z,102376.34
2023-02-14T18:37:52.600Z,102384.94
2023-02-14T18:40:56.571Z,102383.50
2023-02-14T18:44:02.276Z,102397.56
2023-02-14T18:47:08.032Z,102381.72
2023-02-14T18:50:12.541Z,102388.38
2023-02-14T18:53:16.693Z,102390.44
2023-02-14T18:56:23.952Z,102401.31
2023-02-14T18:59:28.093Z,102389.19
2023-02-14T19:02:32.298Z,102378.13
2023-02-14T19:05:39.376Z,102393.28
2023-02-14T19:08:44.300Z,102386.91
2023-02-14T19:11:48.690Z,102392.19
2023-02-14T19:14:54.714Z,102392.59
2023-02-14T19:18:01.310Z,102395.03
2023-02-14T19:21:27.956Z,102398.72
2023-02-14T19:24:32.595Z,102339.03
2023-02-14T19:27:38.156Z,102364.88
2023-02-14T19:30:43.016Z,102354.56
2023-02-14T19:33:48.414Z,102366.47
2023-02-14T19:36:54.452Z,102364.13
2023-02-14T19:39:59.115Z,102390.97
2023-02-14T19:43:03.147Z,102402.75
2023-02-14T19:46:08.247Z,102387.97
2023-02-14T19:49:16.186Z,102375.47
2023-02-14T19:52:27.502Z,102355.38
2023-02-14T19:55:32.564Z,102291.34
2023-02-14T19:58:37.421Z,102373.94
2023-02-14T20:01:50.361Z,102401.06
2023-02-14T20:04:59.764Z,102379.00
2023-02-14T20:08:04.883Z,102359.47
2023-02-14T20:11:50.803Z,102420.91
2023-02-14T20:14:59.616Z,102423.63
2023-02-14T20:18:05.597Z,102414.47
2023-02-14T20:21:20.126Z,102407.81
2023-02-14T20:27:55.536Z,102410.25
2023-02-14T20:31:00.027Z,102381.47
2023-02-14T20:34:05.303Z,102441.03
2023-02-14T20:37:13.746Z,102433.47
2023-02-14T20:40:20.129Z,102413.09
2023-02-14T20:43:27.448Z,102335.44
2023-02-14T20:46:31.951Z,102386.53
2023-02-14T20:49:36.594Z,102415.72
2023-02-14T20:52:40.663Z,102429.88
2023-02-14T20:55:48.232Z,102406.25
2023-02-14T20:58:53.072Z,102439.97
2023-02-14T21:01:59.469Z,102427.34
2023-02-14T21:05:06.260Z,102438.28
2023-02-14T21:08:10.720Z,102346.63
2023-02-14T21:11:18.296Z,102435.78
2023-02-14T21:14:22.972Z,102425.38
2023-02-14T21:17:27.244Z,102382.22
2023-02-14T21:20:34.455Z,102446.41
2023-02-14T21:23:38.805Z,102447.56
2023-02-14T21:26:48.268Z,102466.00
2023-02-14T21:29:52.706Z,102437.78
2023-02-14T21:32:57.018Z,102449.56
2023-02-14T21:36:15.047Z,102482.78
2023-02-14T21:39:21.670Z,102455.31
2023-02-14T21:42:26.896Z,102451.41
2023-02-14T21:45:49.776Z,102438.34
2023-02-14T21:49:13.361Z,102494.63
2023-02-14T21:52:17.886Z,102434.56
2023-02-14T21:55:22.069Z,102505.63
2023-02-14T21:58:26.461Z,102500.41
2023-02-14T22:01:33.885Z,102509.97
2023-02-14T22:04:39.005Z,102437.06
2023-02-14T22:07:43.422Z,102524.97
2023-02-14T22:10:47.916Z,102490.16
2023-02-14T22:13:51.844Z,102529.31
2023-02-14T22:16:56.466Z,102535.47
2023-02-14T22:20:00.771Z,102538.88
2023-02-14T22:23:06.292Z,102530.69
2023-02-14T22:26:16.277Z,102473.50
2023-02-14T22:29:20.611Z,102499.88
2023-02-14T22:32:24.934Z,102483.03
2023-02-14T22:35:30.145Z,102537.47
2023-02-14T22:38:38.345Z,102525.41
2023-02-14T22:41:45.339Z,102544.75
2023-02-14T22:44:49.817Z,102510.56
2023-02-14T22:47:57.481Z,102547.25
2023-02-14T22:51:20.177Z,102559.34
2023-02-14T22:54:29.397Z,102548.00
2023-02-14T22:57:38.038Z,102564.84
2023-02-14T23:00:44.960Z,102573.97
2023-02-14T23:03:50.485Z,102562.09
2023-02-14T23:06:57.634Z,102587.81
2023-02-14T23:10:02.157Z,102579.50
2023-02-14T23:13:25.428Z,102591.78
2023-02-14T23:16:48.228Z,102582.63
2023-02-14T23:20:10.979Z,102601.38
2023-02-14T23:23:15.305Z,102604.16
2023-02-14T23:26:22.668Z,102593.44
2023-02-14T23:29:27.248Z,102548.75
2023-02-14T23:32:31.587Z,102547.25
2023-02-14T23:35:38.512Z,102601.91
2023-02-14T23:38:42.891Z,102600.53
2023-02-14T23:41:50.159Z,102506.66
2023-02-14T23:44:54.551Z,102611.69
2023-02-14T23:48:06.260Z,102609.75
2023-02-14T23:51:10.803Z,102613.34
2023-02-14T23:54:16.154Z,102583.59
2023-02-14T23:57:20.529Z,102608.78
